Terminal Aerodrome Forecast
Issued by NWS Boise, ID

Home | Current Version | Previous Version | Text Only | Print | Product List | Glossary On
Versions: 1 2 3 4 5 6 7 8 9 10 11 12 13 14 15 16 17 18 19 20 21 22 23 24 25 26 27 28 29 30 31 32 33 34 35 36 37 38 39 40
000
FTUS45 KBOI 230520
TAFBOI
TAF
KBOI 230520Z 2306/2406 13009KT P6SM VCSH OVC060
     FM230800 13009KT 3SM -SHSN OVC015
     FM231400 11009KT 6SM -SHRA OVC015
     FM232000 33009KT P6SM -SHRA SCT025 OVC040
     FM240000 33010KT P6SM SCT080=

USA.gov is the U.S. government's official web portal to all federal, state and local government web resources and services.